Hannut, Belgium
Current Conditions -  °F | °C
As of 11:25 AM on Monday 26 Jan 2015 (Local Time) from EBBE Reporting Station
Drizzle Drizzle  
Wind Chill: 35°   Ceiling: 200
Heat Index: 41°   Visibility: 0.62mi
Dew Point: 41°   Wind: 9mph
Humidity: 100%   Direction: 220°SW
Pressure: 30.15"   Gusts: NA
Location:  50.67°N, 5.08°E
Report Text: EBBE 261025Z 22008KT 1000 DZ FEW001 OVC002 05/05 Q1021 AMB AMB
Loading
Personal Weather Stations






























Interactive Weather Map New forecast layout! Learn more

10-Day Weather Forecast

Advertisements
Track Severe Weather on mobile